sensor_id;sensor_type;location;lat;lon;timestamp;pressure;altitude;pressure_sealevel;temperature;humidity
17072;BME280;7731;50.720;6.912;2024-01-06T09:39:10;99346.91;;;4.86;100.00
17072;BME280;7731;50.720;6.912;2024-01-06T09:41:41;99345.13;;;5.10;100.00
17072;BME280;7731;50.720;6.912;2024-01-06T09:44:14;99348.81;;;4.81;100.00
17072;BME280;7731;50.720;6.912;2024-01-06T09:46:46;99359.56;;;4.65;100.00
17072;BME280;7731;50.720;6.912;2024-01-06T09:49:22;99356.75;;;4.50;100.00
17072;BME280;7731;50.720;6.912;2024-01-06T09:51:56;99353.44;;;4.47;100.00
17072;BME280;7731;50.720;6.912;2024-01-06T09:54:33;99361.16;;;4.68;100.00
17072;BME280;7731;50.720;6.912;2024-01-06T09:57:07;99369.34;;;4.53;100.00
17072;BME280;7731;50.720;6.912;2024-01-06T09:59:40;99374.25;;;4.35;100.00
17072;BME280;7731;50.720;6.912;2024-01-06T10:02:14;99371.03;;;4.54;100.00
17072;BME280;7731;50.720;6.912;2024-01-06T10:04:45;99378.75;;;4.51;100.00
17072;BME280;7731;50.720;6.912;2024-01-06T10:07:16;99380.25;;;4.56;100.00
17072;BME280;7731;50.720;6.912;2024-01-06T10:09:49;99373.91;;;4.44;100.00
17072;BME280;7731;50.720;6.912;2024-01-06T10:12:23;99384.72;;;4.50;100.00
17072;BME280;7731;50.720;6.912;2024-01-06T10:14:59;99373.66;;;4.96;100.00
17072;BME280;7731;50.720;6.912;2024-01-06T10:17:33;99391.06;;;4.39;100.00
17072;BME280;7731;50.720;6.912;2024-01-06T10:20:11;99380.72;;;4.44;100.00
17072;BME280;7731;50.720;6.912;2024-01-06T10:22:42;99394.78;;;4.53;100.00
17072;BME280;7731;50.720;6.912;2024-01-06T10:25:26;99394.13;;;4.47;100.00
17072;BME280;7731;50.720;6.912;2024-01-06T10:28:11;99399.72;;;4.08;100.00
17072;BME280;7731;50.720;6.912;2024-01-06T10:30:41;99393.66;;;4.13;100.00
17072;BME280;7731;50.720;6.912;2024-01-06T10:33:14;99398.75;;;4.13;100.00
17072;BME280;7731;50.720;6.912;2024-01-06T10:35:45;99398.25;;;4.52;100.00
17072;BME280;7731;50.720;6.912;2024-01-06T10:38:18;99402.53;;;4.26;100.00
17072;BME280;7731;50.720;6.912;2024-01-06T10:41:00;99398.34;;;4.49;100.00
17072;BME280;7731;50.720;6.912;2024-01-06T10:43:35;99409.88;;;4.57;100.00
17072;BME280;7731;50.720;6.912;2024-01-06T10:46:09;99402.69;;;4.45;100.00
17072;BME280;7731;50.720;6.912;2024-01-06T10:48:42;99402.59;;;4.48;100.00
17072;BME280;7731;50.720;6.912;2024-01-06T10:51:14;99409.50;;;4.68;100.00
17072;BME280;7731;50.720;6.912;2024-01-06T10:53:50;99407.97;;;4.64;100.00
17072;BME280;7731;50.720;6.912;2024-01-06T10:56:24;99408.75;;;4.42;100.00
17072;BME280;7731;50.720;6.912;2024-01-06T10:59:01;99408.44;;;4.74;100.00
17072;BME280;7731;50.720;6.912;2024-01-06T11:01:37;99394.97;;;4.94;100.00
17072;BME280;7731;50.720;6.912;2024-01-06T11:04:09;99404.63;;;4.62;100.00
17072;BME280;7731;50.720;6.912;2024-01-06T11:06:42;99414.28;;;4.30;100.00
17072;BME280;7731;50.720;6.912;2024-01-06T11:09:24;99406.81;;;4.25;100.00
17072;BME280;7731;50.720;6.912;2024-01-06T11:12:15;99407.72;;;4.46;100.00
17072;BME280;7731;50.720;6.912;2024-01-06T11:14:45;99404.88;;;4.32;100.00
17072;BME280;7731;50.720;6.912;2024-01-06T11:17:52;99404.91;;;4.31;100.00
17072;BME280;7731;50.720;6.912;2024-01-06T11:20:26;99406.16;;;4.19;100.00
17072;BME280;7731;50.720;6.912;2024-01-06T11:23:19;99399.84;;;4.05;100.00
17072;BME280;7731;50.720;6.912;2024-01-06T11:25:53;99409.69;;;4.15;100.00
17072;BME280;7731;50.720;6.912;2024-01-06T11:28:26;99405.34;;;4.18;100.00
17072;BME280;7731;50.720;6.912;2024-01-06T11:31:07;99409.50;;;3.96;100.00
17072;BME280;7731;50.720;6.912;2024-01-06T11:33:54;99404.06;;;4.06;100.00
17072;BME280;7731;50.720;6.912;2024-01-06T11:36:25;99415.09;;;4.31;100.00
17072;BME280;7731;50.720;6.912;2024-01-06T11:38:56;99415.78;;;4.34;100.00
17072;BME280;7731;50.720;6.912;2024-01-06T11:41:47;99400.78;;;4.03;100.00
17072;BME280;7731;50.720;6.912;2024-01-06T11:44:21;99408.94;;;4.13;100.00
17072;BME280;7731;50.720;6.912;2024-01-06T11:46:55;99402.38;;;4.31;100.00
17072;BME280;7731;50.720;6.912;2024-01-06T11:49:36;99407.63;;;4.26;100.00
17072;BME280;7731;50.720;6.912;2024-01-06T11:52:07;99415.31;;;4.24;100.00
17072;BME280;7731;50.720;6.912;2024-01-06T11:54:38;99407.19;;;4.38;100.00
17072;BME280;7731;50.720;6.912;2024-01-06T11:57:09;99411.22;;;4.44;100.00
17072;BME280;7731;50.720;6.912;2024-01-06T11:59:48;99413.38;;;4.55;100.00
17072;BME280;7731;50.720;6.912;2024-01-06T12:02:19;99413.94;;;4.63;100.00
17072;BME280;7731;50.720;6.912;2024-01-06T12:04:50;99419.53;;;4.49;100.00
17072;BME280;7731;50.720;6.912;2024-01-06T12:07:21;99414.47;;;4.47;100.00
17072;BME280;7731;50.720;6.912;2024-01-06T12:10:03;99407.84;;;4.43;100.00
17072;BME280;7731;50.720;6.912;2024-01-06T12:12:56;99412.72;;;4.26;100.00
17072;BME280;7731;50.720;6.912;2024-01-06T12:15:34;99416.38;;;4.42;100.00
17072;BME280;7731;50.720;6.912;2024-01-06T12:18:08;99418.81;;;4.45;100.00
17072;BME280;7731;50.720;6.912;2024-01-06T12:20:38;99413.50;;;4.52;100.00
17072;BME280;7731;50.720;6.912;2024-01-06T12:23:09;99418.69;;;4.49;100.00
17072;BME280;7731;50.720;6.912;2024-01-06T12:25:39;99420.66;;;4.40;100.00
17072;BME280;7731;50.720;6.912;2024-01-06T12:28:11;99418.25;;;4.61;100.00
17072;BME280;7731;50.720;6.912;2024-01-06T12:30:51;99414.97;;;4.34;100.00
17072;BME280;7731;50.720;6.912;2024-01-06T12:33:24;99423.50;;;4.56;100.00
17072;BME280;7731;50.720;6.912;2024-01-06T12:35:55;99414.81;;;4.38;100.00
17072;BME280;7731;50.720;6.912;2024-01-06T12:38:46;99412.91;;;3.94;100.00
17072;BME280;7731;50.720;6.912;2024-01-06T12:41:17;99413.03;;;4.17;100.00
17072;BME280;7731;50.720;6.912;2024-01-06T12:43:47;99415.34;;;4.23;100.00
17072;BME280;7731;50.720;6.912;2024-01-06T12:46:20;99410.28;;;4.23;100.00
17072;BME280;7731;50.720;6.912;2024-01-06T12:48:51;99424.53;;;4.27;100.00
17072;BME280;7731;50.720;6.912;2024-01-06T12:51:22;99427.63;;;4.35;100.00
17072;BME280;7731;50.720;6.912;2024-01-06T12:53:55;99416.22;;;4.22;100.00
17072;BME280;7731;50.720;6.912;2024-01-06T12:56:25;99420.78;;;4.37;100.00
17072;BME280;7731;50.720;6.912;2024-01-06T12:59:01;99418.81;;;4.45;100.00
17072;BME280;7731;50.720;6.912;2024-01-06T13:01:36;99424.16;;;4.61;100.00
17072;BME280;7731;50.720;6.912;2024-01-06T13:04:06;99429.19;;;4.39;100.00
17072;BME280;7731;50.720;6.912;2024-01-06T13:06:37;99424.50;;;4.28;100.00
17072;BME280;7731;50.720;6.912;2024-01-06T13:09:13;99428.22;;;4.18;100.00
17072;BME280;7731;50.720;6.912;2024-01-06T13:11:46;99425.47;;;4.24;100.00
17072;BME280;7731;50.720;6.912;2024-01-06T13:14:20;99428.06;;;4.46;100.00
17072;BME280;7731;50.720;6.912;2024-01-06T13:16:53;99427.53;;;4.38;100.00
17072;BME280;7731;50.720;6.912;2024-01-06T13:19:24;99438.44;;;4.17;100.00
17072;BME280;7731;50.720;6.912;2024-01-06T13:21:55;99435.59;;;4.26;100.00
17072;BME280;7731;50.720;6.912;2024-01-06T13:24:32;99447.06;;;4.13;100.00
17072;BME280;7731;50.720;6.912;2024-01-06T13:27:02;99452.50;;;4.02;100.00
17072;BME280;7731;50.720;6.912;2024-01-06T13:29:36;99454.38;;;4.22;100.00
17072;BME280;7731;50.720;6.912;2024-01-06T13:32:15;99456.06;;;3.96;100.00
17072;BME280;7731;50.720;6.912;2024-01-06T13:34:49;99456.56;;;4.07;100.00
17072;BME280;7731;50.720;6.912;2024-01-06T13:37:23;99465.00;;;3.83;100.00
17072;BME280;7731;50.720;6.912;2024-01-06T13:40:01;99466.44;;;3.90;100.00
17072;BME280;7731;50.720;6.912;2024-01-06T13:42:31;99467.38;;;3.87;100.00
17072;BME280;7731;50.720;6.912;2024-01-06T13:45:02;99475.34;;;3.77;100.00
17072;BME280;7731;50.720;6.912;2024-01-06T13:47:43;99472.78;;;3.78;100.00
17072;BME280;7731;50.720;6.912;2024-01-06T13:50:18;99474.19;;;3.60;100.00
17072;BME280;7731;50.720;6.912;2024-01-06T13:52:49;99471.25;;;3.46;100.00
17072;BME280;7731;50.720;6.912;2024-01-06T13:55:19;99479.44;;;3.54;100.00
17072;BME280;7731;50.720;6.912;2024-01-06T13:57:51;99474.56;;;3.74;100.00
17072;BME280;7731;50.720;6.912;2024-01-06T14:00:23;99484.03;;;3.96;100.00
17072;BME280;7731;50.720;6.912;2024-01-06T14:02:57;99487.34;;;3.71;100.00
17072;BME280;7731;50.720;6.912;2024-01-06T14:05:28;99484.94;;;3.95;100.00
17072;BME280;7731;50.720;6.912;2024-01-06T14:07:58;99490.69;;;3.73;100.00
17072;BME280;7731;50.720;6.912;2024-01-06T14:10:29;99488.25;;;3.97;100.00
17072;BME280;7731;50.720;6.912;2024-01-06T14:12:59;99494.22;;;3.69;100.00
17072;BME280;7731;50.720;6.912;2024-01-06T14:15:30;99501.06;;;3.67;100.00
17072;BME280;7731;50.720;6.912;2024-01-06T14:18:05;99498.56;;;3.66;100.00
17072;BME280;7731;50.720;6.912;2024-01-06T14:20:38;99503.69;;;3.64;100.00
17072;BME280;7731;50.720;6.912;2024-01-06T14:23:17;99513.53;;;3.47;100.00
17072;BME280;7731;50.720;6.912;2024-01-06T14:25:52;99519.06;;;3.60;100.00
17072;BME280;7731;50.720;6.912;2024-01-06T14:28:22;99522.13;;;3.43;100.00
17072;BME280;7731;50.720;6.912;2024-01-06T14:30:52;99523.63;;;3.48;100.00
17072;BME280;7731;50.720;6.912;2024-01-06T14:33:28;99524.47;;;3.49;100.00
17072;BME280;7731;50.720;6.912;2024-01-06T14:35:58;99530.59;;;3.70;100.00
17072;BME280;7731;50.720;6.912;2024-01-06T14:38:29;99530.34;;;3.51;100.00
17072;BME280;7731;50.720;6.912;2024-01-06T14:40:59;99533.88;;;3.73;100.00
17072;BME280;7731;50.720;6.912;2024-01-06T14:43:29;99539.72;;;3.49;100.00
17072;BME280;7731;50.720;6.912;2024-01-06T14:46:00;99542.63;;;3.36;100.00
17072;BME280;7731;50.720;6.912;2024-01-06T14:48:38;99539.06;;;3.42;100.00
17072;BME280;7731;50.720;6.912;2024-01-06T14:51:08;99538.00;;;3.49;100.00
17072;BME280;7731;50.720;6.912;2024-01-06T14:53:49;99550.66;;;3.51;100.00
17072;BME280;7731;50.720;6.912;2024-01-06T14:56:26;99549.06;;;3.47;100.00
17072;BME280;7731;50.720;6.912;2024-01-06T14:58:57;99552.13;;;3.58;100.00
17072;BME280;7731;50.720;6.912;2024-01-06T15:01:27;99553.16;;;3.52;100.00
17072;BME280;7731;50.720;6.912;2024-01-06T15:04:10;99553.66;;;3.35;100.00
17072;BME280;7731;50.720;6.912;2024-01-06T15:06:41;99558.19;;;3.54;100.00
17072;BME280;7731;50.720;6.912;2024-01-06T15:09:11;99557.09;;;3.63;100.00
17072;BME280;7731;50.720;6.912;2024-01-06T15:11:41;99563.19;;;3.84;100.00
17072;BME280;7731;50.720;6.912;2024-01-06T15:14:12;99570.16;;;4.32;100.00
17072;BME280;7731;50.720;6.912;2024-01-06T15:16:52;99578.34;;;3.87;100.00
17072;BME280;7731;50.720;6.912;2024-01-06T15:19:27;99579.91;;;3.91;100.00
17072;BME280;7731;50.720;6.912;2024-01-06T15:22:02;99577.63;;;3.83;100.00
17072;BME280;7731;50.720;6.912;2024-01-06T15:24:32;99585.38;;;3.50;100.00
17072;BME280;7731;50.720;6.912;2024-01-06T15:27:03;99579.78;;;3.96;100.00
17072;BME280;7731;50.720;6.912;2024-01-06T15:29:33;99588.31;;;3.93;100.00
17072;BME280;7731;50.720;6.912;2024-01-06T15:32:05;99593.81;;;4.07;100.00
17072;BME280;7731;50.720;6.912;2024-01-06T15:34:38;99600.72;;;3.75;100.00
17072;BME280;7731;50.720;6.912;2024-01-06T15:37:08;99596.13;;;3.87;100.00
17072;BME280;7731;50.720;6.912;2024-01-06T15:39:39;99592.81;;;4.11;100.00
17072;BME280;7731;50.720;6.912;2024-01-06T15:42:09;99604.84;;;3.80;100.00
17072;BME280;7731;50.720;6.912;2024-01-06T15:44:40;99611.31;;;3.88;100.00
17072;BME280;7731;50.720;6.912;2024-01-06T15:47:10;99605.69;;;3.79;100.00
17072;BME280;7731;50.720;6.912;2024-01-06T15:49:48;99617.19;;;3.62;100.00
17072;BME280;7731;50.720;6.912;2024-01-06T15:52:33;99617.63;;;3.47;100.00
17072;BME280;7731;50.720;6.912;2024-01-06T15:55:07;99621.84;;;3.48;100.00
17072;BME280;7731;50.720;6.912;2024-01-06T15:57:38;99623.94;;;3.63;100.00
17072;BME280;7731;50.720;6.912;2024-01-06T16:00:12;99625.44;;;3.40;100.00
17072;BME280;7731;50.720;6.912;2024-01-06T16:02:48;99626.97;;;3.46;100.00
17072;BME280;7731;50.720;6.912;2024-01-06T16:05:24;99635.41;;;3.47;100.00
17072;BME280;7731;50.720;6.912;2024-01-06T16:07:55;99633.09;;;3.39;100.00
17072;BME280;7731;50.720;6.912;2024-01-06T16:10:28;99637.09;;;3.48;100.00
17072;BME280;7731;50.720;6.912;2024-01-06T16:12:59;99635.41;;;3.47;100.00
17072;BME280;7731;50.720;6.912;2024-01-06T16:15:29;99636.19;;;3.19;100.00
17072;BME280;7731;50.720;6.912;2024-01-06T16:18:03;99648.91;;;3.49;100.00
17072;BME280;7731;50.720;6.912;2024-01-06T16:20:39;99647.59;;;3.35;100.00
17072;BME280;7731;50.720;6.912;2024-01-06T16:23:13;99643.84;;;3.49;100.00
17072;BME280;7731;50.720;6.912;2024-01-06T16:25:44;99654.16;;;3.43;100.00
17072;BME280;7731;50.720;6.912;2024-01-06T16:28:15;99654.00;;;3.49;100.00
17072;BME280;7731;50.720;6.912;2024-01-06T16:30:45;99651.78;;;3.66;100.00
17072;BME280;7731;50.720;6.912;2024-01-06T16:33:15;99655.97;;;3.37;100.00
17072;BME280;7731;50.720;6.912;2024-01-06T16:35:54;99661.47;;;3.22;100.00
17072;BME280;7731;50.720;6.912;2024-01-06T16:38:27;99662.25;;;3.26;100.00
17072;BME280;7731;50.720;6.912;2024-01-06T16:41:02;99667.03;;;3.03;100.00
17072;BME280;7731;50.720;6.912;2024-01-06T16:43:33;99661.81;;;2.77;100.00
17072;BME280;7731;50.720;6.912;2024-01-06T16:46:12;99666.63;;;3.19;100.00
17072;BME280;7731;50.720;6.912;2024-01-06T16:48:44;99661.88;;;3.07;100.00
17072;BME280;7731;50.720;6.912;2024-01-06T16:51:18;99665.44;;;3.32;100.00
17072;BME280;7731;50.720;6.912;2024-01-06T16:53:52;99670.50;;;2.66;100.00
17072;BME280;7731;50.720;6.912;2024-01-06T16:56:22;99664.75;;;2.94;100.00
17072;BME280;7731;50.720;6.912;2024-01-06T16:59:01;99667.53;;;3.18;100.00
17072;BME280;7731;50.720;6.912;2024-01-06T17:01:32;99667.75;;;2.76;100.00
17072;BME280;7731;50.720;6.912;2024-01-06T17:04:03;99664.44;;;2.74;100.00
17072;BME280;7731;50.720;6.912;2024-01-06T17:06:36;99671.25;;;2.70;100.00
17072;BME280;7731;50.720;6.912;2024-01-06T17:09:06;99676.84;;;2.84;100.00
17072;BME280;7731;50.720;6.912;2024-01-06T17:11:39;99673.78;;;2.70;100.00
17072;BME280;7731;50.720;6.912;2024-01-06T17:14:09;99678.22;;;2.62;100.00
17072;BME280;7731;50.720;6.912;2024-01-06T17:16:50;99684.81;;;3.03;100.00
17072;BME280;7731;50.720;6.912;2024-01-06T17:19:20;99691.59;;;3.03;100.00
17072;BME280;7731;50.720;6.912;2024-01-06T17:21:53;99692.41;;;3.03;100.00
17072;BME280;7731;50.720;6.912;2024-01-06T17:24:24;99688.81;;;2.78;100.00
17072;BME280;7731;50.720;6.912;2024-01-06T17:26:54;99695.59;;;3.12;100.00
17072;BME280;7731;50.720;6.912;2024-01-06T17:29:25;99693.78;;;3.17;100.00
17072;BME280;7731;50.720;6.912;2024-01-06T17:31:55;99697.63;;;2.99;100.00
17072;BME280;7731;50.720;6.912;2024-01-06T17:34:29;99697.25;;;3.13;100.00
17072;BME280;7731;50.720;6.912;2024-01-06T17:37:02;99703.38;;;3.38;100.00
17072;BME280;7731;50.720;6.912;2024-01-06T17:39:36;99701.47;;;3.14;100.00
17072;BME280;7731;50.720;6.912;2024-01-06T17:42:07;99709.00;;;2.82;100.00
17072;BME280;7731;50.720;6.912;2024-01-06T17:44:40;99709.22;;;2.73;100.00
17072;BME280;7731;50.720;6.912;2024-01-06T17:47:12;99724.50;;;2.72;100.00
17072;BME280;7731;50.720;6.912;2024-01-06T17:49:42;99716.72;;;2.78;100.00
17072;BME280;7731;50.720;6.912;2024-01-06T17:52:15;99713.56;;;2.70;100.00
17072;BME280;7731;50.720;6.912;2024-01-06T17:54:49;99722.13;;;2.64;100.00
17072;BME280;7731;50.720;6.912;2024-01-06T17:57:19;99728.78;;;2.70;100.00
17072;BME280;7731;50.720;6.912;2024-01-06T17:59:53;99734.41;;;2.45;100.00
17072;BME280;7731;50.720;6.912;2024-01-06T18:02:27;99735.91;;;2.54;100.00
17072;BME280;7731;50.720;6.912;2024-01-06T18:04:59;99753.16;;;2.38;100.00
17072;BME280;7731;50.720;6.912;2024-01-06T18:07:32;99745.84;;;2.63;100.00
17072;BME280;7731;50.720;6.912;2024-01-06T18:10:02;99749.13;;;2.66;100.00
17072;BME280;7731;50.720;6.912;2024-01-06T18:12:36;99751.38;;;2.79;100.00
17072;BME280;7731;50.720;6.912;2024-01-06T18:15:09;99764.97;;;2.39;100.00
17072;BME280;7731;50.720;6.912;2024-01-06T18:17:40;99762.63;;;2.67;100.00
17072;BME280;7731;50.720;6.912;2024-01-06T18:20:11;99758.38;;;2.69;100.00
17072;BME280;7731;50.720;6.912;2024-01-06T18:22:51;99757.03;;;2.90;100.00
17072;BME280;7731;50.720;6.912;2024-01-06T18:25:24;99749.34;;;2.57;100.00
17072;BME280;7731;50.720;6.912;2024-01-06T18:27:54;99754.25;;;2.65;100.00
17072;BME280;7731;50.720;6.912;2024-01-06T18:30:25;99756.44;;;2.43;100.00
17072;BME280;7731;50.720;6.912;2024-01-06T18:32:58;99756.31;;;2.08;100.00
17072;BME280;7731;50.720;6.912;2024-01-06T18:35:35;99770.38;;;2.23;100.00
17072;BME280;7731;50.720;6.912;2024-01-06T18:38:07;99768.28;;;2.41;100.00
17072;BME280;7731;50.720;6.912;2024-01-06T18:40:38;99769.78;;;2.51;100.00
17072;BME280;7731;50.720;6.912;2024-01-06T18:43:08;99768.75;;;2.60;100.00
17072;BME280;7731;50.720;6.912;2024-01-06T18:45:38;99770.38;;;2.98;100.00
17072;BME280;7731;50.720;6.912;2024-01-06T18:48:09;99765.56;;;2.50;100.00
17072;BME280;7731;50.720;6.912;2024-01-06T18:50:43;99759.13;;;3.09;100.00
17072;BME280;7731;50.720;6.912;2024-01-06T18:53:21;99765.94;;;3.07;100.00
17072;BME280;7731;50.720;6.912;2024-01-06T18:55:51;99779.63;;;2.26;100.00
17072;BME280;7731;50.720;6.912;2024-01-06T18:58:24;99773.09;;;2.53;100.00
17072;BME280;7731;50.720;6.912;2024-01-06T19:00:58;99784.72;;;2.63;100.00
17072;BME280;7731;50.720;6.912;2024-01-06T19:03:28;99783.50;;;2.41;100.00
17072;BME280;7731;50.720;6.912;2024-01-06T19:05:59;99785.19;;;2.42;100.00
17072;BME280;7731;50.720;6.912;2024-01-06T19:08:34;99785.56;;;2.62;100.00
17072;BME280;7731;50.720;6.912;2024-01-06T19:11:05;99785.53;;;2.64;100.00
17072;BME280;7731;50.720;6.912;2024-01-06T19:13:36;99787.63;;;2.46;100.00
17072;BME280;7731;50.720;6.912;2024-01-06T19:16:09;99785.50;;;2.26;100.00
17072;BME280;7731;50.720;6.912;2024-01-06T19:18:42;99787.00;;;2.37;100.00
17072;BME280;7731;50.720;6.912;2024-01-06T19:21:17;99793.72;;;2.38;100.00
17072;BME280;7731;50.720;6.912;2024-01-06T19:23:57;99794.47;;;2.01;100.00
17072;BME280;7731;50.720;6.912;2024-01-06T19:26:30;99790.63;;;1.81;100.00
17072;BME280;7731;50.720;6.912;2024-01-06T19:29:00;99793.28;;;2.19;100.00
17072;BME280;7731;50.720;6.912;2024-01-06T19:31:36;99798.84;;;2.35;100.00
17072;BME280;7731;50.720;6.912;2024-01-06T19:34:07;99799.41;;;2.07;100.00
17072;BME280;7731;50.720;6.912;2024-01-06T19:36:41;99803.06;;;1.93;100.00
17072;BME280;7731;50.720;6.912;2024-01-06T19:39:16;99801.16;;;2.05;100.00
17072;BME280;7731;50.720;6.912;2024-01-06T19:41:47;99796.22;;;1.99;100.00
17072;BME280;7731;50.720;6.912;2024-01-06T19:44:17;99805.63;;;1.92;100.00
17072;BME280;7731;50.720;6.912;2024-01-06T19:46:47;99805.63;;;1.90;100.00
17072;BME280;7731;50.720;6.912;2024-01-06T19:49:18;99812.22;;;2.01;100.00
17072;BME280;7731;50.720;6.912;2024-01-06T19:51:52;99813.56;;;2.19;100.00
17072;BME280;7731;50.720;6.912;2024-01-06T19:54:24;99810.88;;;2.26;100.00
17072;BME280;7731;50.720;6.912;2024-01-06T19:57:02;99820.94;;;2.29;100.00
17072;BME280;7731;50.720;6.912;2024-01-06T19:59:34;99820.00;;;1.91;100.00
17072;BME280;7731;50.720;6.912;2024-01-06T20:02:06;99820.75;;;1.95;100.00
17072;BME280;7731;50.720;6.912;2024-01-06T20:04:37;99818.59;;;2.20;100.00
17072;BME280;7731;50.720;6.912;2024-01-06T20:07:07;99820.56;;;2.48;100.00
17072;BME280;7731;50.720;6.912;2024-01-06T20:09:43;99823.66;;;2.20;100.00
17072;BME280;7731;50.720;6.912;2024-01-06T20:12:16;99826.09;;;2.25;100.00
17072;BME280;7731;50.720;6.912;2024-01-06T20:14:47;99823.75;;;2.16;100.00
17072;BME280;7731;50.720;6.912;2024-01-06T20:17:19;99827.81;;;2.24;100.00
17072;BME280;7731;50.720;6.912;2024-01-06T20:19:52;99835.25;;;2.32;100.00
17072;BME280;7731;50.720;6.912;2024-01-06T20:22:32;99833.03;;;2.57;100.00
17072;BME280;7731;50.720;6.912;2024-01-06T20:25:12;99831.72;;;2.39;100.00
17072;BME280;7731;50.720;6.912;2024-01-06T20:27:44;99837.75;;;2.34;100.00
17072;BME280;7731;50.720;6.912;2024-01-06T20:30:14;99843.16;;;2.18;100.00
17072;BME280;7731;50.720;6.912;2024-01-06T20:32:45;99844.88;;;2.57;100.00
17072;BME280;7731;50.720;6.912;2024-01-06T20:35:15;99847.66;;;2.46;100.00
17072;BME280;7731;50.720;6.912;2024-01-06T20:37:51;99845.72;;;2.57;100.00
17072;BME280;7731;50.720;6.912;2024-01-06T20:40:31;99845.16;;;2.01;100.00
17072;BME280;7731;50.720;6.912;2024-01-06T20:43:01;99842.25;;;2.19;100.00
17072;BME280;7731;50.720;6.912;2024-01-06T20:45:34;99850.72;;;2.60;100.00
17072;BME280;7731;50.720;6.912;2024-01-06T20:48:06;99839.25;;;2.00;100.00
17072;BME280;7731;50.720;6.912;2024-01-06T20:50:37;99847.84;;;2.37;100.00
17072;BME280;7731;50.720;6.912;2024-01-06T20:53:08;99846.16;;;2.36;100.00
17072;BME280;7731;50.720;6.912;2024-01-06T20:55:41;99847.47;;;2.11;100.00
17072;BME280;7731;50.720;6.912;2024-01-06T20:58:12;99852.06;;;1.92;100.00
17072;BME280;7731;50.720;6.912;2024-01-06T21:00:42;99852.06;;;1.92;100.00
17072;BME280;7731;50.720;6.912;2024-01-06T21:03:12;99843.69;;;1.87;100.00
17072;BME280;7731;50.720;6.912;2024-01-06T21:05:43;99845.50;;;2.27;100.00
17072;BME280;7731;50.720;6.912;2024-01-06T21:08:13;99849.16;;;2.53;100.00
17072;BME280;7731;50.720;6.912;2024-01-06T21:10:47;99847.78;;;2.40;100.00
17072;BME280;7731;50.720;6.912;2024-01-06T21:13:17;99842.31;;;2.16;100.00
17072;BME280;7731;50.720;6.912;2024-01-06T21:15:57;99845.66;;;2.60;100.00
17072;BME280;7731;50.720;6.912;2024-01-06T21:18:27;99847.72;;;2.43;100.00
17072;BME280;7731;50.720;6.912;2024-01-06T21:21:00;99850.78;;;2.57;100.00
17072;BME280;7731;50.720;6.912;2024-01-06T21:23:30;99852.97;;;2.34;100.00
17072;BME280;7731;50.720;6.912;2024-01-06T21:26:16;99849.22;;;2.50;100.00
17072;BME280;7731;50.720;6.912;2024-01-06T21:28:52;99856.44;;;2.29;100.00
17072;BME280;7731;50.720;6.912;2024-01-06T21:31:23;99859.13;;;2.62;100.00
17072;BME280;7731;50.720;6.912;2024-01-06T21:33:55;99858.66;;;2.45;100.00
17072;BME280;7731;50.720;6.912;2024-01-06T21:36:28;99862.69;;;2.11;100.00
17072;BME280;7731;50.720;6.912;2024-01-06T21:39:01;99856.59;;;2.20;100.00
17072;BME280;7731;50.720;6.912;2024-01-06T21:41:52;99857.97;;;2.37;100.00
17072;BME280;7731;50.720;6.912;2024-01-06T21:44:23;99856.44;;;2.29;100.00
17072;BME280;7731;50.720;6.912;2024-01-06T21:46:53;99857.13;;;2.36;100.00
17072;BME280;7731;50.720;6.912;2024-01-06T21:49:30;99856.19;;;2.42;100.00
17072;BME280;7731;50.720;6.912;2024-01-06T21:52:00;99860.22;;;2.07;100.00
17072;BME280;7731;50.720;6.912;2024-01-06T21:54:32;99854.44;;;2.44;100.00
17072;BME280;7731;50.720;6.912;2024-01-06T21:57:07;99860.38;;;2.44;100.00
17072;BME280;7731;50.720;6.912;2024-01-06T21:59:37;99858.13;;;2.29;100.00
17072;BME280;7731;50.720;6.912;2024-01-06T22:02:08;99863.53;;;2.12;100.00
17072;BME280;7731;50.720;6.912;2024-01-06T22:04:39;99865.84;;;2.24;100.00
17072;BME280;7731;50.720;6.912;2024-01-06T22:07:13;99864.47;;;2.06;100.00
17072;BME280;7731;50.720;6.912;2024-01-06T22:09:46;99870.03;;;2.24;100.00
17072;BME280;7731;50.720;6.912;2024-01-06T22:12:21;99868.44;;;2.21;100.00
17072;BME280;7731;50.720;6.912;2024-01-06T22:14:59;99870.72;;;2.34;100.00
17072;BME280;7731;50.720;6.912;2024-01-06T22:17:29;99880.38;;;2.13;100.00
17072;BME280;7731;50.720;6.912;2024-01-06T22:20:03;99880.44;;;2.10;100.00
17072;BME280;7731;50.720;6.912;2024-01-06T22:22:34;99879.69;;;2.06;100.00
17072;BME280;7731;50.720;6.912;2024-01-06T22:25:06;99880.38;;;2.13;100.00
17072;BME280;7731;50.720;6.912;2024-01-06T22:27:46;99881.81;;;2.28;100.00
17072;BME280;7731;50.720;6.912;2024-01-06T22:30:17;99878.56;;;2.21;100.00
17072;BME280;7731;50.720;6.912;2024-01-06T22:32:57;99877.13;;;2.08;100.00
17072;BME280;7731;50.720;6.912;2024-01-06T22:35:28;99870.81;;;2.29;100.00
17072;BME280;7731;50.720;6.912;2024-01-06T22:38:01;99863.75;;;2.00;100.00
17072;BME280;7731;50.720;6.912;2024-01-06T22:40:31;99872.47;;;1.85;100.00
17072;BME280;7731;50.720;6.912;2024-01-06T22:43:06;99871.72;;;2.65;100.00
17072;BME280;7731;50.720;6.912;2024-01-06T22:45:41;99882.28;;;2.45;100.00
17072;BME280;7731;50.720;6.912;2024-01-06T22:48:12;99878.97;;;2.82;100.00
17072;BME280;7731;50.720;6.912;2024-01-06T22:50:42;99883.88;;;2.51;100.00
17072;BME280;7731;50.720;6.912;2024-01-06T22:53:15;99885.50;;;2.10;100.00
17072;BME280;7731;50.720;6.912;2024-01-06T22:55:54;99884.91;;;2.41;100.00
17072;BME280;7731;50.720;6.912;2024-01-06T22:58:27;99877.66;;;2.24;100.00
17072;BME280;7731;50.720;6.912;2024-01-06T23:01:03;99885.50;;;2.10;100.00
17072;BME280;7731;50.720;6.912;2024-01-06T23:03:34;99890.09;;;2.36;100.00
17072;BME280;7731;50.720;6.912;2024-01-06T23:06:05;99893.44;;;1.91;100.00
17072;BME280;7731;50.720;6.912;2024-01-06T23:08:36;99885.66;;;2.02;100.00
17072;BME280;7731;50.720;6.912;2024-01-06T23:11:09;99898.09;;;2.14;100.00
17072;BME280;7731;50.720;6.912;2024-01-06T23:13:46;99893.00;;;2.16;100.00
17072;BME280;7731;50.720;6.912;2024-01-06T23:16:18;99905.06;;;2.03;100.00
17072;BME280;7731;50.720;6.912;2024-01-06T23:18:49;99903.28;;;2.08;100.00
17072;BME280;7731;50.720;6.912;2024-01-06T23:21:22;99901.44;;;2.18;100.00